createdAt,value
2019-01-21T00:04:53.996Z,101724.95
2019-01-21T00:09:59.349Z,101732.02
2019-01-21T00:15:04.841Z,101725.55
2019-01-21T00:20:11.365Z,101722.89
2019-01-21T00:25:16.801Z,101713.09
2019-01-21T00:30:22.159Z,101714.82
2019-01-21T00:35:27.542Z,101709.20
2019-01-21T00:40:32.861Z,101704.08
2019-01-21T00:45:38.199Z,101709.97
2019-01-21T00:50:43.505Z,101712.41
2019-01-21T00:55:48.827Z,101718.47
2019-01-21T01:00:54.200Z,101723.70
2019-01-21T01:05:59.585Z,101727.71
2019-01-21T01:11:04.929Z,101733.53
2019-01-21T01:16:10.286Z,101740.13
2019-01-21T01:21:15.617Z,101752.98
2019-01-21T01:26:20.963Z,101753.98
2019-01-21T01:31:26.272Z,101753.28
2019-01-21T01:36:31.673Z,101748.93
2019-01-21T01:41:36.990Z,101748.86
2019-01-21T01:46:42.318Z,101750.34
2019-01-21T01:51:47.652Z,101750.40
2019-01-21T01:56:52.979Z,101745.92
2019-01-21T02:01:58.433Z,101753.35
2019-01-21T02:07:03.840Z,101753.52
2019-01-21T02:12:09.198Z,101752.70
2019-01-21T02:17:14.538Z,101758.98
2019-01-21T02:22:19.887Z,101767.52
2019-01-21T02:28:22.898Z,101760.17
2019-01-21T02:34:04.556Z,101762.03
2019-01-21T02:39:43.034Z,101772.98
2019-01-21T02:45:50.754Z,101778.64
2019-01-21T02:52:02.087Z,101781.59
2019-01-21T02:57:58.676Z,101773.47
2019-01-21T03:03:42.703Z,101778.14
2019-01-21T03:09:41.483Z,101771.16
2019-01-21T03:15:41.408Z,101767.98
2019-01-21T03:21:29.828Z,101771.16
2019-01-21T03:27:06.930Z,101768.64
2019-01-21T03:32:55.296Z,101779.32
2019-01-21T03:39:09.610Z,101783.72
2019-01-21T03:45:24.323Z,101781.40
2019-01-21T03:51:42.765Z,101783.98
2019-01-21T03:57:24.772Z,101786.92
2019-01-21T04:03:16.492Z,101789.12
2019-01-21T04:09:39.840Z,101790.34
2019-01-21T04:15:05.897Z,101779.15
2019-01-21T04:20:39.833Z,101787.42
2019-01-21T04:26:23.012Z,101772.04
2019-01-21T04:32:22.359Z,101770.11
2019-01-21T04:38:37.015Z,101772.42
2019-01-21T04:44:29.791Z,101768.53
2019-01-21T04:50:26.226Z,101769.73
2019-01-21T04:56:28.879Z,101777.77
2019-01-21T05:02:31.778Z,101768.98
2019-01-21T05:08:31.378Z,101772.94
2019-01-21T05:14:32.999Z,101792.50
2019-01-21T05:20:52.192Z,101792.91
2019-01-21T05:27:00.877Z,101789.41
2019-01-21T05:32:58.374Z,101796.57
2019-01-21T05:38:48.936Z,101789.58
2019-01-21T05:44:44.405Z,101796.44
2019-01-21T05:50:45.516Z,101801.45
2019-01-21T05:57:04.603Z,101793.95
2019-01-21T06:02:52.485Z,101797.12
2019-01-21T06:09:29.934Z,101801.65
2019-01-21T06:15:38.473Z,101802.45
2019-01-21T06:21:43.985Z,101797.16
2019-01-21T06:27:38.407Z,101791.66
2019-01-21T06:33:39.029Z,101787.27
2019-01-21T06:39:46.766Z,101800.23
2019-01-21T06:45:31.888Z,101813.77
2019-01-21T06:51:52.500Z,101820.37
2019-01-21T06:58:15.730Z,101821.42
2019-01-21T07:04:37.958Z,101813.02
2019-01-21T07:10:32.656Z,101822.98
2019-01-21T07:16:50.155Z,101827.14
2019-01-21T07:22:35.003Z,101839.97
2019-01-21T07:28:36.424Z,101844.32
2019-01-21T07:34:40.364Z,101851.16
2019-01-21T07:40:26.164Z,101850.29
2019-01-21T07:46:31.783Z,101854.71
2019-01-21T07:52:55.367Z,101850.05
2019-01-21T07:59:14.179Z,101846.95
2019-01-21T08:05:20.892Z,101855.06
2019-01-21T08:11:20.678Z,101856.77
2019-01-21T08:17:14.402Z,101857.09
2019-01-21T08:23:30.382Z,101856.22
2019-01-21T08:29:38.873Z,101846.36
2019-01-21T08:35:23.447Z,101842.23
2019-01-21T08:41:46.890Z,101828.20
2019-01-21T08:47:43.327Z,101827.48
2019-01-21T08:53:52.481Z,101817.66
2019-01-21T08:59:47.699Z,101828.31
2019-01-21T09:05:32.031Z,101814.73
2019-01-21T09:11:45.310Z,101819.41
2019-01-21T09:17:46.115Z,101821.41
2019-01-21T09:23:27.079Z,101817.09
2019-01-21T09:29:26.944Z,101816.18
2019-01-21T09:34:53.962Z,101827.33
2019-01-21T09:41:15.202Z,101829.64
2019-01-21T09:46:56.468Z,101823.02
2019-01-21T09:52:08.476Z,101824.26
2019-01-21T09:57:29.387Z,101829.77
2019-01-21T10:02:42.243Z,101829.05
2019-01-21T10:09:00.087Z,101834.20
2019-01-21T10:15:15.818Z,101843.00
2019-01-21T10:21:06.244Z,101853.38
2019-01-21T10:27:26.775Z,101860.05
2019-01-21T10:33:21.348Z,101855.05
2019-01-21T10:39:08.090Z,101859.59
2019-01-21T10:44:55.959Z,101854.11
2019-01-21T10:51:07.097Z,101833.91
2019-01-21T10:57:07.367Z,101841.91
2019-01-21T11:03:07.869Z,101825.91
2019-01-21T11:09:31.288Z,101824.06
2019-01-21T11:15:30.382Z,101810.17
2019-01-21T11:21:15.142Z,101804.03
2019-01-21T11:26:54.598Z,101801.95
2019-01-21T11:32:40.591Z,101789.70
2019-01-21T11:38:37.975Z,101772.29
2019-01-21T11:44:41.170Z,101766.00
2019-01-21T11:50:37.074Z,101755.36
2019-01-21T11:56:11.996Z,101748.05
2019-01-21T12:02:07.907Z,101744.33
2019-01-21T12:07:52.561Z,101742.13
2019-01-21T12:13:53.592Z,101741.84
2019-01-21T12:19:49.891Z,101748.52
2019-01-21T12:25:28.197Z,101744.12
2019-01-21T12:31:25.726Z,101732.70
2019-01-21T12:37:15.652Z,101730.67
2019-01-21T12:43:05.601Z,101718.09
2019-01-21T12:49:28.073Z,101707.16
2019-01-21T12:55:12.186Z,101701.94
2019-01-21T13:01:22.760Z,101703.02
2019-01-21T13:06:51.359Z,101688.08
2019-01-21T13:13:04.589Z,101688.95
2019-01-21T13:19:08.999Z,101673.22
2019-01-21T13:24:49.277Z,101662.12
2019-01-21T13:30:36.235Z,101656.94
2019-01-21T13:36:21.091Z,101647.06
2019-01-21T13:42:15.856Z,101645.50
2019-01-21T13:48:03.233Z,101646.13
2019-01-21T13:53:45.626Z,101639.06
2019-01-21T13:59:43.966Z,101622.52
2019-01-21T14:05:46.232Z,101620.93
2019-01-21T14:11:44.985Z,101611.73
2019-01-21T14:17:48.460Z,101606.82
2019-01-21T14:24:00.223Z,101596.11
2019-01-21T14:30:32.496Z,101592.98
2019-01-21T14:36:24.214Z,101591.53
2019-01-21T14:42:16.493Z,101582.58
2019-01-21T14:48:13.930Z,101582.98
2019-01-21T14:54:23.872Z,101576.52
2019-01-21T15:00:21.545Z,101572.54
2019-01-21T15:06:06.507Z,101566.89
2019-01-21T15:12:01.675Z,101570.88
2019-01-21T15:18:06.010Z,101566.05
2019-01-21T15:23:59.456Z,101574.06
2019-01-21T15:30:04.551Z,101574.95
2019-01-21T15:36:01.413Z,101571.51
2019-01-21T15:41:52.737Z,101566.03
2019-01-21T15:47:47.365Z,101561.02
2019-01-21T15:53:32.309Z,101550.80
2019-01-21T15:59:33.713Z,101548.08
2019-01-21T16:04:55.605Z,101548.69
2019-01-21T16:10:33.709Z,101554.09
2019-01-21T16:16:45.468Z,101565.39
2019-01-21T16:23:01.775Z,101562.53
2019-01-21T16:29:15.752Z,101568.98
2019-01-21T16:34:54.310Z,101569.42
2019-01-21T16:40:38.047Z,101563.53
2019-01-21T16:45:43.482Z,101555.44
2019-01-21T16:50:49.009Z,101544.94
2019-01-21T16:55:54.375Z,101542.77
2019-01-21T17:00:59.770Z,101540.84
2019-01-21T17:06:05.587Z,101532.55
2019-01-21T17:11:11.122Z,101539.08
2019-01-21T17:16:16.442Z,101536.77
2019-01-21T17:21:26.925Z,101525.41
2019-01-21T17:26:28.879Z,101525.91
2019-01-21T17:31:34.871Z,101528.68
2019-01-21T17:36:54.985Z,101528.39
2019-01-21T17:42:07.179Z,101520.30
2019-01-21T17:47:23.003Z,101520.80
2019-01-21T17:58:55.457Z,101519.29
2019-01-21T18:05:24.383Z,101519.78
2019-01-21T18:11:18.222Z,101519.20
2019-01-21T18:17:32.057Z,101514.55
2019-01-21T18:35:23.558Z,101503.30
2019-01-21T18:40:30.846Z,101486.99
2019-01-21T18:45:37.627Z,101474.52
2019-01-21T18:50:48.324Z,101466.61
2019-01-21T18:56:19.003Z,101470.36
2019-01-21T19:03:06.027Z,101463.05
2019-01-21T19:27:12.273Z,101453.25
2019-01-21T19:32:38.891Z,101459.72
2019-01-21T19:37:50.770Z,101457.84
2019-01-21T19:43:09.385Z,101450.00
2019-01-21T20:02:23.183Z,101438.84
2019-01-21T20:08:17.691Z,101440.20
2019-01-21T20:14:58.884Z,101428.35
2019-01-21T20:20:16.556Z,101431.78
2019-01-21T20:25:28.715Z,101427.00
2019-01-21T20:38:49.003Z,101423.45
2019-01-21T20:44:25.734Z,101425.45
2019-01-21T21:02:51.737Z,101412.84
2019-01-21T21:35:05.074Z,101405.86
2019-01-21T21:40:16.905Z,101402.82
2019-01-21T21:46:11.196Z,101397.64
2019-01-21T21:51:41.137Z,101389.59
2019-01-21T21:58:59.796Z,101380.95
2019-01-21T22:05:47.122Z,101376.80
2019-01-21T22:23:58.009Z,101351.03
2019-01-21T22:29:08.668Z,101346.44
2019-01-21T22:35:02.689Z,101337.88
2019-01-21T22:40:46.526Z,101338.12
2019-01-21T22:46:56.712Z,101337.80
2019-01-21T22:52:05.732Z,101326.49
2019-01-21T22:57:23.597Z,101327.98
2019-01-21T23:02:37.193Z,101322.73
2019-01-21T23:08:55.184Z,101315.28
2019-01-21T23:14:09.706Z,101306.20
2019-01-21T23:19:38.787Z,101292.76
2019-01-21T23:24:53.671Z,101283.03
2019-01-21T23:30:07.519Z,101279.34
2019-01-21T23:35:13.664Z,101271.09
2019-01-21T23:40:20.592Z,101258.61
2019-01-21T23:45:36.598Z,101249.98
2019-01-21T23:50:50.511Z,101240.50
2019-01-21T23:56:11.443Z,101237.66
